createdAt,value
2018-07-31T00:01:49.455Z,99.90
2018-07-31T00:04:17.938Z,99.90
2018-07-31T00:06:46.361Z,99.90
2018-07-31T00:09:14.833Z,99.90
2018-07-31T00:11:43.264Z,99.90
2018-07-31T00:14:11.698Z,99.90
2018-07-31T00:16:40.128Z,99.90
2018-07-31T00:19:08.570Z,99.90
2018-07-31T00:21:37.009Z,99.90
2018-07-31T00:24:05.471Z,99.90
2018-07-31T00:26:33.913Z,99.90
2018-07-31T00:31:30.470Z,99.90
2018-07-31T00:36:27.040Z,99.90
2018-07-31T00:38:55.472Z,99.90
2018-07-31T00:41:23.923Z,99.90
2018-07-31T00:43:52.399Z,99.90
2018-07-31T00:46:20.814Z,99.90
2018-07-31T00:48:49.261Z,99.90
2018-07-31T00:51:17.668Z,99.90
2018-07-31T00:53:46.073Z,99.90
2018-07-31T00:56:14.522Z,99.90
2018-07-31T00:58:42.938Z,99.90
2018-07-31T01:03:39.495Z,99.90
2018-07-31T01:08:36.057Z,99.90
2018-07-31T01:11:04.564Z,99.90
2018-07-31T01:13:32.944Z,99.90
2018-07-31T01:16:01.377Z,99.90
2018-07-31T01:20:57.963Z,99.90
2018-07-31T01:23:26.382Z,99.90
2018-07-31T01:25:54.837Z,99.90
2018-07-31T01:28:23.262Z,99.90
2018-07-31T01:30:51.726Z,99.90
2018-07-31T01:33:20.149Z,99.90
2018-07-31T01:35:48.577Z,99.90
2018-07-31T01:38:17.005Z,99.90
2018-07-31T01:43:13.589Z,99.90
2018-07-31T01:45:42.073Z,99.90
2018-07-31T01:48:10.522Z,99.90
2018-07-31T01:50:39.005Z,99.90
2018-07-31T01:53:07.461Z,99.90
2018-07-31T01:55:35.918Z,99.90
2018-07-31T01:58:04.376Z,99.90
2018-07-31T02:03:01.002Z,99.90
2018-07-31T02:05:29.498Z,99.90
2018-07-31T02:07:57.998Z,99.90
2018-07-31T02:10:26.461Z,99.90
2018-07-31T02:12:54.973Z,99.90
2018-07-31T02:15:23.405Z,99.90
2018-07-31T02:17:51.982Z,99.90
2018-07-31T02:20:20.443Z,99.90
2018-07-31T02:22:48.925Z,99.90
2018-07-31T02:25:17.382Z,99.90
2018-07-31T02:27:45.835Z,99.90
2018-07-31T02:30:19.584Z,99.90
2018-07-31T02:32:48.129Z,99.90
2018-07-31T02:35:16.699Z,99.90
2018-07-31T02:37:45.334Z,99.90
2018-07-31T02:42:42.372Z,99.90
2018-07-31T02:45:12.846Z,99.90
2018-07-31T02:50:09.792Z,99.90
2018-07-31T02:52:38.613Z,99.90
2018-07-31T02:55:07.789Z,99.90
2018-07-31T03:00:05.478Z,99.90
2018-07-31T03:02:33.969Z,99.90
2018-07-31T03:05:02.470Z,99.90
2018-07-31T03:07:31.001Z,99.90
2018-07-31T03:09:59.462Z,99.90
2018-07-31T03:12:27.937Z,99.90
2018-07-31T03:14:56.388Z,99.90
2018-07-31T03:22:21.200Z,99.90
2018-07-31T03:24:49.640Z,99.90
2018-07-31T03:27:18.092Z,99.90
2018-07-31T03:32:14.708Z,99.90
2018-07-31T03:34:43.185Z,99.90
2018-07-31T03:37:11.649Z,99.90
2018-07-31T03:39:40.125Z,99.90
2018-07-31T03:42:08.576Z,99.90
2018-07-31T03:47:05.174Z,99.90
2018-07-31T03:49:33.630Z,99.90
2018-07-31T03:52:02.107Z,99.90
2018-07-31T03:54:30.590Z,99.90
2018-07-31T03:56:59.031Z,99.90
2018-07-31T04:01:55.645Z,99.90
2018-07-31T04:04:24.105Z,99.90
2018-07-31T04:06:52.551Z,99.90
2018-07-31T04:11:49.134Z,99.90
2018-07-31T04:14:17.609Z,99.90
2018-07-31T04:16:46.120Z,99.90
2018-07-31T04:19:14.563Z,99.90
2018-07-31T04:21:43.033Z,99.90
2018-07-31T04:24:11.514Z,99.90
2018-07-31T04:26:39.987Z,99.90
2018-07-31T04:31:36.617Z,99.90
2018-07-31T04:34:05.115Z,99.90
2018-07-31T04:36:33.579Z,99.90
2018-07-31T04:39:02.057Z,99.90
2018-07-31T04:41:30.537Z,99.90
2018-07-31T04:43:58.988Z,99.90
2018-07-31T04:46:27.468Z,99.90
2018-07-31T04:48:55.912Z,99.90
2018-07-31T04:51:24.402Z,99.90
2018-07-31T04:53:52.851Z,99.90
2018-07-31T04:58:49.458Z,99.90
2018-07-31T05:01:17.927Z,99.90
2018-07-31T05:03:46.429Z,99.90
2018-07-31T05:06:14.910Z,99.90
2018-07-31T05:08:43.356Z,99.90
2018-07-31T05:11:11.928Z,99.90
2018-07-31T05:13:40.298Z,99.90
2018-07-31T05:18:36.925Z,99.90
2018-07-31T05:21:05.429Z,99.90
2018-07-31T05:26:02.018Z,99.90
2018-07-31T05:28:30.475Z,99.90
2018-07-31T05:30:58.953Z,99.90
2018-07-31T05:33:27.500Z,99.90
2018-07-31T05:35:56.013Z,99.90
2018-07-31T05:38:24.494Z,99.90
2018-07-31T05:40:52.981Z,99.90
2018-07-31T05:43:21.450Z,99.90
2018-07-31T05:45:49.897Z,99.90
2018-07-31T05:48:18.658Z,99.90
2018-07-31T05:50:47.121Z,99.90
2018-07-31T05:53:15.600Z,99.90
2018-07-31T05:55:44.047Z,99.90
2018-07-31T05:58:12.522Z,99.90
2018-07-31T06:00:40.989Z,99.90
2018-07-31T06:03:09.472Z,99.90
2018-07-31T06:05:37.909Z,99.90
2018-07-31T06:08:06.374Z,99.90
2018-07-31T06:10:34.857Z,99.90
2018-07-31T06:13:03.322Z,99.90
2018-07-31T06:15:31.785Z,99.90
2018-07-31T06:20:28.414Z,99.90
2018-07-31T06:22:56.889Z,99.90
2018-07-31T06:25:25.353Z,99.90
2018-07-31T06:27:53.838Z,99.90
2018-07-31T06:30:22.305Z,99.90
2018-07-31T06:32:50.847Z,99.90
2018-07-31T06:37:47.451Z,99.90
2018-07-31T06:40:15.911Z,99.90
2018-07-31T06:42:44.402Z,99.90
2018-07-31T06:45:12.875Z,99.90
2018-07-31T06:47:41.328Z,99.90
2018-07-31T06:50:09.788Z,99.90
2018-07-31T06:52:38.299Z,99.90
2018-07-31T06:55:06.812Z,99.90
2018-07-31T06:57:35.263Z,99.90
2018-07-31T07:00:03.809Z,99.90
2018-07-31T07:02:32.281Z,99.90
2018-07-31T07:05:00.767Z,99.90
2018-07-31T07:07:29.239Z,99.90
2018-07-31T07:09:57.709Z,99.90
2018-07-31T07:12:26.179Z,99.90
2018-07-31T07:14:54.666Z,99.90
2018-07-31T07:17:23.104Z,99.90
2018-07-31T07:19:51.577Z,99.90
2018-07-31T07:22:20.031Z,99.90
2018-07-31T07:24:48.482Z,99.90
2018-07-31T07:27:16.929Z,99.90
2018-07-31T07:29:45.395Z,99.90
2018-07-31T07:32:13.877Z,99.90
2018-07-31T07:34:42.345Z,99.90
2018-07-31T07:39:38.965Z,99.90
2018-07-31T07:42:07.471Z,99.90
2018-07-31T07:47:04.098Z,99.90
2018-07-31T07:49:32.574Z,99.90
2018-07-31T07:52:01.029Z,99.90
2018-07-31T07:54:29.457Z,99.90
2018-07-31T07:56:57.922Z,99.90
2018-07-31T07:59:26.381Z,99.90
2018-07-31T08:01:54.861Z,99.90
2018-07-31T08:04:23.310Z,99.90
2018-07-31T08:06:51.830Z,99.90
2018-07-31T08:09:20.253Z,99.90
2018-07-31T08:14:16.837Z,99.90
2018-07-31T08:16:45.331Z,99.90
2018-07-31T08:19:13.799Z,99.90
2018-07-31T08:21:42.405Z,99.90
2018-07-31T08:24:10.960Z,99.90
2018-07-31T08:26:39.450Z,99.90
2018-07-31T08:29:07.898Z,99.90
2018-07-31T08:34:04.533Z,99.90
2018-07-31T08:36:33.110Z,99.90
2018-07-31T08:39:01.558Z,99.90
2018-07-31T08:41:30.431Z,99.90
2018-07-31T08:43:58.882Z,99.90
2018-07-31T08:46:27.366Z,99.90
2018-07-31T08:51:23.983Z,99.90
2018-07-31T08:53:52.421Z,99.90
2018-07-31T08:56:20.882Z,99.90
2018-07-31T09:01:17.457Z,99.90
2018-07-31T09:03:45.949Z,99.90
2018-07-31T09:06:14.397Z,99.90
2018-07-31T09:11:10.992Z,99.90
2018-07-31T09:13:39.438Z,99.90
2018-07-31T09:16:07.941Z,99.90
2018-07-31T09:18:36.838Z,99.90
2018-07-31T09:21:05.253Z,99.90
2018-07-31T09:23:33.664Z,99.90
2018-07-31T09:26:02.085Z,99.90
2018-07-31T09:28:30.517Z,99.90
2018-07-31T09:36:00.662Z,99.90
2018-07-31T09:40:57.168Z,99.90
2018-07-31T09:43:25.581Z,99.80
2018-07-31T09:45:54.006Z,99.50
2018-07-31T09:48:22.427Z,99.30
2018-07-31T09:50:50.842Z,97.00
2018-07-31T09:53:19.262Z,95.90
2018-07-31T09:55:47.674Z,96.10
2018-07-31T09:58:16.116Z,96.10
2018-07-31T10:00:49.917Z,95.30
2018-07-31T10:03:18.365Z,93.00
2018-07-31T10:05:46.760Z,93.00
2018-07-31T10:08:19.423Z,94.50
2018-07-31T10:10:47.879Z,94.50
2018-07-31T10:13:16.274Z,91.00
2018-07-31T10:18:12.927Z,89.10
2018-07-31T10:20:41.278Z,87.00
2018-07-31T10:23:09.673Z,85.60
2018-07-31T10:25:38.221Z,88.10
2018-07-31T10:28:06.706Z,89.40
2018-07-31T10:30:35.206Z,85.60
2018-07-31T10:33:03.790Z,83.00
2018-07-31T10:35:32.325Z,82.30
2018-07-31T10:38:00.750Z,83.70
2018-07-31T10:40:29.172Z,74.50
2018-07-31T10:42:57.593Z,73.10
2018-07-31T10:45:26.090Z,69.30
2018-07-31T10:47:54.516Z,71.60
2018-07-31T10:50:22.922Z,71.00
2018-07-31T10:52:51.339Z,70.60
2018-07-31T10:55:19.745Z,69.90
2018-07-31T10:57:48.142Z,65.50
2018-07-31T11:00:16.619Z,65.30
2018-07-31T11:02:45.046Z,66.00
2018-07-31T11:05:13.438Z,66.00
2018-07-31T11:10:10.034Z,64.20
2018-07-31T11:12:38.522Z,65.50
2018-07-31T11:15:07.098Z,63.10
2018-07-31T11:17:35.677Z,60.90
2018-07-31T11:20:04.484Z,58.80
2018-07-31T11:22:32.945Z,57.80
2018-07-31T11:25:01.374Z,57.60
2018-07-31T11:27:29.899Z,56.20
2018-07-31T11:29:58.305Z,57.30
2018-07-31T11:32:26.784Z,58.00
2018-07-31T11:34:55.224Z,56.50
2018-07-31T11:37:23.677Z,56.40
2018-07-31T11:39:52.246Z,58.90
2018-07-31T11:42:20.701Z,60.10
2018-07-31T11:44:49.152Z,59.20
2018-07-31T11:47:17.613Z,65.30
2018-07-31T11:49:46.110Z,64.60
2018-07-31T11:52:14.581Z,63.10
2018-07-31T11:54:43.030Z,62.90
2018-07-31T11:57:11.509Z,61.10
2018-07-31T11:59:39.951Z,58.00
2018-07-31T12:02:08.405Z,59.70
2018-07-31T12:07:05.047Z,59.90
2018-07-31T12:12:01.675Z,58.00
2018-07-31T12:14:30.150Z,58.90
2018-07-31T12:16:58.581Z,59.00
2018-07-31T12:19:27.051Z,57.40
2018-07-31T12:24:23.601Z,60.30
2018-07-31T12:26:52.102Z,57.60
2018-07-31T12:31:48.682Z,60.90
2018-07-31T12:34:17.169Z,61.50
2018-07-31T12:36:45.666Z,59.80
2018-07-31T12:39:14.121Z,66.10
2018-07-31T12:41:42.593Z,62.70
2018-07-31T12:44:11.126Z,63.50
2018-07-31T12:46:39.561Z,59.40
2018-07-31T12:49:08.051Z,58.20
2018-07-31T12:51:36.485Z,58.60
2018-07-31T12:54:04.986Z,56.70
2018-07-31T12:56:33.415Z,58.20
2018-07-31T12:59:01.882Z,58.00
2018-07-31T13:01:30.331Z,56.50
2018-07-31T13:03:58.757Z,57.60
2018-07-31T13:06:27.213Z,56.30
2018-07-31T13:08:55.668Z,54.70
2018-07-31T13:11:24.127Z,55.30
2018-07-31T13:13:52.562Z,55.80
2018-07-31T13:16:21.045Z,55.20
2018-07-31T13:18:49.548Z,55.00
2018-07-31T13:21:17.997Z,54.20
2018-07-31T13:23:46.445Z,54.00
2018-07-31T13:26:14.927Z,52.80
2018-07-31T13:28:43.353Z,52.00
2018-07-31T13:31:11.801Z,50.70
2018-07-31T13:33:40.267Z,52.10
2018-07-31T13:36:08.845Z,51.20
2018-07-31T13:38:37.286Z,49.80
2018-07-31T13:41:05.757Z,49.00
2018-07-31T13:43:34.257Z,47.30
2018-07-31T13:46:02.664Z,48.20
2018-07-31T13:48:31.146Z,49.00
2018-07-31T13:50:59.606Z,47.80
2018-07-31T13:55:56.195Z,45.80
2018-07-31T13:58:24.636Z,47.50
2018-07-31T14:03:21.397Z,46.50
2018-07-31T14:05:49.854Z,46.90
2018-07-31T14:08:18.310Z,46.10
2018-07-31T14:10:46.750Z,45.60
2018-07-31T14:13:15.218Z,43.50
2018-07-31T14:15:43.681Z,43.10
2018-07-31T14:20:40.300Z,42.40
2018-07-31T14:23:08.760Z,41.40
2018-07-31T14:25:37.235Z,42.90
2018-07-31T14:28:05.710Z,45.70
2018-07-31T14:30:34.163Z,45.90
2018-07-31T14:33:02.646Z,44.80
2018-07-31T14:37:59.237Z,42.50
2018-07-31T14:40:27.714Z,39.50
2018-07-31T14:42:56.249Z,39.00
2018-07-31T14:45:24.694Z,39.50
2018-07-31T14:47:53.150Z,38.90
2018-07-31T14:50:21.577Z,39.70
2018-07-31T14:52:50.045Z,39.40
2018-07-31T14:55:18.495Z,40.70
2018-07-31T14:57:47.001Z,39.70
2018-07-31T15:00:15.478Z,41.30
2018-07-31T15:02:43.937Z,41.00
2018-07-31T15:05:12.377Z,40.90
2018-07-31T15:10:09.197Z,39.20
2018-07-31T15:12:37.941Z,40.40
2018-07-31T15:15:06.408Z,40.00
2018-07-31T15:17:34.902Z,37.30
2018-07-31T15:20:03.370Z,38.00
2018-07-31T15:22:31.845Z,37.00
2018-07-31T15:25:00.281Z,38.10
2018-07-31T15:27:28.759Z,39.20
2018-07-31T15:29:57.328Z,37.90
2018-07-31T15:32:25.889Z,39.00
2018-07-31T15:34:54.350Z,36.80
2018-07-31T15:39:50.930Z,38.30
2018-07-31T15:42:19.361Z,40.50
2018-07-31T15:44:47.825Z,39.60
2018-07-31T15:47:16.277Z,40.10
2018-07-31T15:49:44.744Z,43.50
2018-07-31T15:52:13.183Z,45.60
2018-07-31T15:54:41.637Z,47.30
2018-07-31T15:57:10.093Z,48.60
2018-07-31T15:59:38.614Z,49.80
2018-07-31T16:02:07.734Z,50.00
2018-07-31T16:07:04.377Z,51.40
2018-07-31T16:09:32.882Z,52.00
2018-07-31T16:12:01.317Z,52.10
2018-07-31T16:14:29.773Z,52.10
2018-07-31T16:16:58.258Z,52.40
2018-07-31T16:19:26.741Z,52.30
2018-07-31T16:21:55.173Z,53.10
2018-07-31T16:26:51.772Z,55.60
2018-07-31T16:29:20.241Z,55.80
2018-07-31T16:31:48.698Z,56.40
2018-07-31T16:34:17.178Z,56.70
2018-07-31T16:36:45.632Z,57.90
2018-07-31T16:39:14.105Z,56.50
2018-07-31T16:41:42.558Z,57.50
2018-07-31T16:44:11.041Z,57.40
2018-07-31T16:46:40.196Z,56.20
2018-07-31T16:49:08.657Z,56.90
2018-07-31T16:54:05.261Z,56.90
2018-07-31T16:56:33.718Z,57.70
2018-07-31T16:59:02.168Z,56.20
2018-07-31T17:03:58.769Z,57.50
2018-07-31T17:06:27.280Z,57.00
2018-07-31T17:08:58.025Z,57.90
2018-07-31T17:11:26.628Z,57.30
2018-07-31T17:13:55.089Z,57.90
2018-07-31T17:18:51.677Z,58.70
2018-07-31T17:21:20.174Z,57.90
2018-07-31T17:23:48.637Z,59.10
2018-07-31T17:26:17.122Z,60.50
2018-07-31T17:28:45.563Z,59.20
2018-07-31T17:33:42.257Z,59.50
2018-07-31T17:36:10.728Z,61.80
2018-07-31T17:38:39.166Z,62.40
2018-07-31T17:41:07.677Z,63.10
2018-07-31T17:43:36.146Z,63.20
2018-07-31T17:48:32.772Z,63.70
2018-07-31T17:51:01.245Z,65.10
2018-07-31T17:53:29.725Z,65.90
2018-07-31T17:55:58.393Z,65.90
2018-07-31T17:58:26.911Z,67.20
2018-07-31T18:00:55.340Z,68.20
2018-07-31T18:03:23.812Z,69.60
2018-07-31T18:05:52.261Z,68.00
2018-07-31T18:08:20.749Z,69.10
2018-07-31T18:13:17.329Z,68.70
2018-07-31T18:15:45.797Z,68.20
2018-07-31T18:18:14.296Z,69.90
2018-07-31T18:20:42.733Z,71.60
2018-07-31T18:23:11.200Z,71.80
2018-07-31T18:25:39.642Z,73.10
2018-07-31T18:28:08.098Z,73.60
2018-07-31T18:30:36.582Z,74.80
2018-07-31T18:33:05.202Z,75.20
2018-07-31T18:35:33.665Z,76.40
2018-07-31T18:38:02.156Z,75.80
2018-07-31T18:40:30.590Z,76.80
2018-07-31T18:45:27.254Z,79.00
2018-07-31T18:47:55.726Z,79.50
2018-07-31T18:50:24.176Z,80.10
2018-07-31T18:52:52.680Z,81.50
2018-07-31T18:57:49.350Z,83.80
2018-07-31T19:00:18.113Z,84.50
2018-07-31T19:02:46.585Z,85.80
2018-07-31T19:05:15.067Z,87.90
2018-07-31T19:07:43.494Z,88.70
2018-07-31T19:10:11.958Z,89.50
2018-07-31T19:12:40.404Z,90.30
2018-07-31T19:15:08.897Z,90.90
2018-07-31T19:20:06.195Z,91.60
2018-07-31T19:22:34.630Z,92.20
2018-07-31T19:25:03.108Z,92.80
2018-07-31T19:27:31.575Z,93.90
2018-07-31T19:30:00.068Z,94.40
2018-07-31T19:32:28.609Z,95.40
2018-07-31T19:34:57.084Z,96.30
2018-07-31T19:37:25.545Z,96.80
2018-07-31T19:40:00.942Z,98.60
2018-07-31T19:42:29.654Z,99.10
2018-07-31T19:47:26.278Z,99.90
2018-07-31T19:49:54.763Z,99.90
2018-07-31T19:52:23.229Z,99.90
2018-07-31T19:54:51.830Z,99.90
2018-07-31T19:57:20.261Z,99.90
2018-07-31T19:59:48.753Z,99.90
2018-07-31T20:02:17.274Z,99.90
2018-07-31T20:04:45.748Z,99.90
2018-07-31T20:07:14.230Z,99.90
2018-07-31T20:09:42.746Z,99.90
2018-07-31T20:12:11.221Z,99.90
2018-07-31T20:17:07.825Z,99.90
2018-07-31T20:19:36.301Z,99.90
2018-07-31T20:22:04.774Z,99.90
2018-07-31T20:24:33.218Z,99.90
2018-07-31T20:29:29.821Z,99.90
2018-07-31T20:31:58.302Z,99.90
2018-07-31T20:34:26.758Z,99.90
2018-07-31T20:36:55.298Z,99.90
2018-07-31T20:39:23.750Z,99.90
2018-07-31T20:41:52.240Z,99.90
2018-07-31T20:44:20.685Z,99.90
2018-07-31T20:46:49.987Z,99.90
2018-07-31T20:49:18.457Z,99.90
2018-07-31T20:51:46.918Z,99.90
2018-07-31T20:54:15.354Z,99.90
2018-07-31T20:56:43.844Z,99.90
2018-07-31T20:59:12.285Z,99.90
2018-07-31T21:01:40.760Z,99.90
2018-07-31T21:04:09.221Z,99.90
2018-07-31T21:06:37.705Z,99.90
2018-07-31T21:09:09.281Z,99.90
2018-07-31T21:11:37.737Z,99.90
2018-07-31T21:14:06.217Z,99.90
2018-07-31T21:16:34.682Z,99.90
2018-07-31T21:21:31.303Z,99.90
2018-07-31T21:23:59.749Z,99.90
2018-07-31T21:26:28.206Z,99.90
2018-07-31T21:28:56.653Z,99.90
2018-07-31T21:31:25.146Z,99.90
2018-07-31T21:33:53.630Z,99.90
2018-07-31T21:36:22.096Z,99.90
2018-07-31T21:38:50.549Z,99.90
2018-07-31T21:41:19.050Z,99.90
2018-07-31T21:43:47.500Z,99.90
2018-07-31T21:46:15.962Z,99.90
2018-07-31T21:48:44.429Z,99.90
2018-07-31T21:51:12.881Z,99.90
2018-07-31T21:58:37.658Z,99.90
2018-07-31T22:01:08.149Z,99.90
2018-07-31T22:03:38.306Z,99.90
2018-07-31T22:06:07.349Z,99.90
2018-07-31T22:08:36.679Z,99.90
2018-07-31T22:11:05.253Z,99.90
2018-07-31T22:13:33.713Z,99.90
2018-07-31T22:16:02.210Z,99.90
2018-07-31T22:18:30.750Z,99.90
2018-07-31T22:20:59.214Z,99.90
2018-07-31T22:23:27.673Z,99.90
2018-07-31T22:25:56.125Z,99.90
2018-07-31T22:30:52.706Z,99.90
2018-07-31T22:33:21.210Z,99.90
2018-07-31T22:35:49.653Z,99.90
2018-07-31T22:38:18.153Z,99.90
2018-07-31T22:40:46.679Z,99.90
2018-07-31T22:43:15.133Z,99.90
2018-07-31T22:45:43.593Z,99.90
2018-07-31T22:48:12.030Z,99.90
2018-07-31T22:50:40.562Z,99.90
2018-07-31T22:53:09.001Z,99.90
2018-07-31T22:55:37.463Z,99.90
2018-07-31T22:58:05.974Z,99.90
2018-07-31T23:00:34.417Z,99.90
2018-07-31T23:03:02.861Z,99.90
2018-07-31T23:05:31.329Z,99.90
2018-07-31T23:07:59.782Z,99.90
2018-07-31T23:12:56.413Z,99.90
2018-07-31T23:15:24.885Z,99.90
2018-07-31T23:17:53.345Z,99.90
2018-07-31T23:20:21.832Z,99.90
2018-07-31T23:22:51.367Z,99.90
2018-07-31T23:25:19.941Z,99.90
2018-07-31T23:27:48.411Z,99.90
2018-07-31T23:30:16.895Z,99.90
2018-07-31T23:32:45.394Z,99.90
2018-07-31T23:35:13.869Z,99.90
2018-07-31T23:37:42.347Z,99.90
2018-07-31T23:40:10.818Z,99.90
2018-07-31T23:42:39.304Z,99.90
2018-07-31T23:45:07.769Z,99.90
2018-07-31T23:47:36.224Z,99.90
2018-07-31T23:50:04.692Z,99.90
2018-07-31T23:52:33.157Z,99.90
2018-07-31T23:55:01.591Z,99.90
2018-07-31T23:57:30.061Z,99.90
2018-07-31T23:59:58.520Z,99.90
